Terminal Aerodrome Forecast
Issued by NWS Wilmington, OH

Current Version | Previous Version | Graphics & Text | Print | Product List | Glossary On
Versions: 1 2 3 4 5 6 7 8 9 10 11 12 13 14 15 16 17 18 19 20 21
000
FTUS41 KILN 160200 AAA
TAFDAY
TAF AMD
KDAY 160223Z 1602/1624 09012KT P6SM VCSH BKN070
     FM160400 10010KT P6SM VCSH OVC035
     FM160800 16008KT P6SM -SHRA OVC025
     FM161700 17010KT P6SM VCSH OVC018=

USA.gov is the U.S. government's official web portal to all federal, state and local government web resources and services.